Time;durP1;ratioP1;P1;durP2;ratioP2;P2;SDS_P1;SDS_P2;PMS_P1;PMS_P2;Temp;Humidity;BMP_temperature;BMP_pressure;BME280_temperature;BME280_humidity;BME280_pressure;Samples;Min_cycle;Max_cycle;Signal;HPM_P1;HPM_P2
2023/07/08 00:03:23;;;;;;;7.00;6.30;;;23.30;55.90;;;;;;10463388;28;20241;-80
2023/07/08 00:08:25;;;;;;;8.10;6.93;;;23.20;57.00;;;;;;10465302;28;20202;-81
2023/07/08 00:13:29;;;;;;;7.83;6.30;;;23.20;56.40;;;;;;10480227;28;20240;-81
2023/07/08 00:18:31;;;;;;;7.00;6.40;;;23.10;55.90;;;;;;10462743;28;20221;-82
2023/07/08 00:23:35;;;;;;;7.20;6.50;;;23.10;55.40;;;;;;10467545;28;20222;-79
2023/07/08 00:28:39;;;;;;;7.80;6.90;;;23.10;55.50;;;;;;10469823;28;20266;-80
2023/07/08 00:33:41;;;;;;;9.43;7.30;;;23.00;55.70;;;;;;10486164;28;20301;-80
2023/07/08 00:38:44;;;;;;;8.93;7.73;;;23.00;56.60;;;;;;10460851;28;20193;-81
2023/07/08 00:43:51;;;;;;;6.40;5.50;;;23.00;57.10;;;;;;10452448;28;20221;-80
2023/07/08 00:48:57;;;;;;;6.63;5.87;;;22.90;57.60;;;;;;10460849;28;20278;-82
2023/07/08 00:53:59;;;;;;;7.57;6.30;;;22.90;56.90;;;;;;10460035;28;20214;-80
2023/07/08 00:59:04;;;;;;;7.30;6.40;;;22.90;57.60;;;;;;10470993;28;20251;-82
2023/07/08 01:04:12;;;;;;;6.80;6.17;;;22.90;57.80;;;;;;10472886;28;20226;-79
2023/07/08 01:09:16;;;;;;;7.07;6.47;;;22.80;56.90;;;;;;10447371;28;20252;-83
2023/07/08 01:14:22;;;;;;;7.10;6.50;;;22.80;56.90;;;;;;10458096;28;20263;-82
2023/07/08 01:19:32;;;;;;;7.63;6.83;;;22.70;57.40;;;;;;10457378;28;20186;-82
2023/07/08 01:24:39;;;;;;;8.90;6.87;;;22.70;57.70;;;;;;10472318;28;20300;-83
2023/07/08 01:29:41;;;;;;;7.10;6.40;;;22.60;57.70;;;;;;10479635;28;20193;-82
2023/07/08 01:34:59;;;;;;;8.20;7.30;;;22.50;58.00;;;;;;10460866;28;20217;-82
2023/07/08 01:40:27;;;;;;;10.73;6.67;;;22.50;57.30;;;;;;10474837;28;20211;-82
2023/07/08 01:45:35;;;;;;;6.10;5.50;;;22.40;57.80;;;;;;10478824;28;20220;-81
2023/07/08 01:50:39;;;;;;;6.43;5.83;;;22.30;57.50;;;;;;10461463;28;20210;-82
2023/07/08 01:55:44;;;;;;;8.93;7.20;;;22.30;57.30;;;;;;10457750;28;20241;-80
2023/07/08 02:00:48;;;;;;;6.43;5.83;;;22.20;57.80;;;;;;10477947;28;20212;-82
2023/07/08 02:05:50;;;;;;;6.67;6.03;;;22.10;58.40;;;;;;10450631;28;20830;-82
2023/07/08 02:10:57;;;;;;;7.03;6.37;;;22.10;58.60;;;;;;10454629;28;20197;-81
2023/07/08 02:15:59;;;;;;;7.93;7.10;;;22.00;59.20;;;;;;10454336;28;20225;-79
2023/07/08 02:21:02;;;;;;;7.30;6.60;;;22.00;58.60;;;;;;10477826;28;20227;-82
2023/07/08 02:26:05;;;;;;;7.13;6.53;;;21.90;59.00;;;;;;10484318;28;20242;-80
2023/07/08 02:31:08;;;;;;;7.50;6.80;;;21.90;58.70;;;;;;10469558;28;20684;-81
2023/07/08 02:36:10;;;;;;;7.27;6.10;;;21.80;58.60;;;;;;10473418;28;20261;-81
2023/07/08 02:41:13;;;;;;;8.00;7.10;;;21.80;59.10;;;;;;10463718;28;20201;-81
2023/07/08 02:46:15;;;;;;;7.13;6.40;;;21.80;58.00;;;;;;10460596;28;20222;-82
2023/07/08 02:51:17;;;;;;;6.90;6.20;;;21.80;58.80;;;;;;10444878;28;20703;-80
2023/07/08 02:56:22;;;;;;;7.53;6.83;;;21.80;58.10;;;;;;10464103;28;20218;-79
2023/07/08 03:01:26;;;;;;;7.47;6.47;;;21.80;58.10;;;;;;10455481;28;20202;-82
2023/07/08 03:06:29;;;;;;;7.50;6.80;;;21.90;58.50;;;;;;10475579;28;20217;-79
2023/07/08 03:11:32;;;;;;;7.23;6.33;;;21.90;58.50;;;;;;10469811;28;20193;-81
2023/07/08 03:16:34;;;;;;;7.60;6.40;;;21.90;58.80;;;;;;10471208;28;20648;-81
2023/07/08 03:21:37;;;;;;;6.77;6.17;;;21.90;59.40;;;;;;10455235;28;20194;-80
2023/07/08 03:26:40;;;;;;;7.73;7.00;;;21.90;59.60;;;;;;10455136;28;20217;-78
2023/07/08 03:31:43;;;;;;;9.77;8.37;;;21.90;58.80;;;;;;10462873;28;20202;-81
2023/07/08 03:36:48;;;;;;;7.43;6.70;;;21.90;57.20;;;;;;10453519;28;20656;-81
2023/07/08 03:41:53;;;;;;;7.60;6.50;;;21.90;57.60;;;;;;10461553;28;20574;-81
2023/07/08 03:46:55;;;;;;;6.33;5.73;;;21.90;58.60;;;;;;10467161;28;20229;-80
2023/07/08 03:51:58;;;;;;;8.07;7.30;;;21.90;59.00;;;;;;10464311;28;20269;-80
2023/07/08 03:57:01;;;;;;;6.97;6.37;;;21.90;59.40;;;;;;10463645;28;20339;-81
2023/07/08 04:02:04;;;;;;;6.93;6.20;;;21.90;59.70;;;;;;10468361;28;20197;-81
2023/07/08 04:07:06;;;;;;;6.27;5.77;;;21.90;59.20;;;;;;10481558;28;20269;-79
2023/07/08 04:12:11;;;;;;;6.43;5.77;;;21.80;59.10;;;;;;10485030;28;20194;-81
2023/07/08 04:17:14;;;;;;;7.10;6.50;;;21.80;60.00;;;;;;10479110;28;20210;-81
2023/07/08 04:22:16;;;;;;;7.70;7.03;;;21.80;59.70;;;;;;10476092;28;20202;-80
2023/07/08 04:27:19;;;;;;;7.10;5.87;;;21.70;60.20;;;;;;10485167;28;20320;-81
2023/07/08 04:32:24;;;;;;;7.67;6.87;;;21.70;61.90;;;;;;10466612;28;20221;-80
2023/07/08 04:37:26;;;;;;;6.33;5.73;;;21.80;61.80;;;;;;10494148;28;20189;-82
2023/07/08 04:42:30;;;;;;;7.97;7.17;;;21.80;61.10;;;;;;10488388;28;20540;-82
2023/07/08 04:47:33;;;;;;;7.57;6.70;;;21.90;61.50;;;;;;10482297;28;20243;-81
2023/07/08 04:52:35;;;;;;;7.43;5.90;;;22.10;60.70;;;;;;10485522;28;20224;-82
2023/07/08 04:57:38;;;;;;;6.70;5.83;;;22.10;60.80;;;;;;10487481;28;20212;-83
2023/07/08 05:02:40;;;;;;;7.20;6.60;;;22.30;62.60;;;;;;10487670;28;20221;-81
2023/07/08 05:07:43;;;;;;;7.10;6.40;;;22.40;62.40;;;;;;10478858;28;20704;-82
2023/07/08 05:12:47;;;;;;;7.00;6.20;;;22.50;62.50;;;;;;10483952;28;20278;-82
2023/07/08 05:17:51;;;;;;;7.17;6.00;;;22.50;63.20;;;;;;10478084;28;20221;-82
2023/07/08 05:28:06;;;;;;;8.60;6.47;;;22.50;65.20;;;;;;10508200;28;20213;-80
2023/07/08 05:33:08;;;;;;;7.23;6.53;;;22.70;64.20;;;;;;10513172;28;20233;-79
2023/07/08 05:38:10;;;;;;;7.17;6.00;;;23.00;62.70;;;;;;10532393;28;20189;-79
2023/07/08 05:43:14;;;;;;;10.57;6.87;;;23.30;63.70;;;;;;10533477;28;20656;-78
2023/07/08 05:48:16;;;;;;;6.93;6.17;;;23.60;65.10;;;;;;10525391;28;20203;-78
2023/07/08 05:53:20;;;;;;;7.00;6.30;;;23.70;62.80;;;;;;10545223;28;20315;-77
2023/07/08 05:58:23;;;;;;;14.37;5.83;;;23.90;62.20;;;;;;10521116;28;20642;-77
2023/07/08 06:03:25;;;;;;;6.83;6.13;;;23.90;62.90;;;;;;10517975;28;20218;-78
2023/07/08 06:08:27;;;;;;;8.80;6.80;;;24.00;63.90;;;;;;10519077;28;20228;-79
2023/07/08 06:13:31;;;;;;;7.50;6.80;;;23.90;62.70;;;;;;10491743;28;20209;-78
2023/07/08 06:18:33;;;;;;;7.67;6.87;;;23.90;66.60;;;;;;10519388;28;20667;-78
2023/07/08 06:23:35;;;;;;;8.17;6.23;;;23.90;63.90;;;;;;10509980;28;20683;-78
2023/07/08 06:28:38;;;;;;;7.23;6.40;;;23.90;62.00;;;;;;10508893;28;20758;-79
2023/07/08 06:33:40;;;;;;;8.80;7.23;;;24.00;63.90;;;;;;10540359;28;20274;-79
2023/07/08 06:38:42;;;;;;;6.63;5.37;;;24.10;62.80;;;;;;10526589;28;20553;-78
2023/07/08 06:43:46;;;;;;;6.60;5.97;;;24.30;65.40;;;;;;10535194;28;20600;-78
2023/07/08 06:48:57;;;;;;;5.77;5.17;;;24.40;64.20;;;;;;10517577;28;20278;-78
2023/07/08 06:53:59;;;;;;;7.10;5.87;;;24.50;62.50;;;;;;10527704;28;20579;-78
2023/07/08 06:59:03;;;;;;;6.23;5.63;;;24.70;61.80;;;;;;10532949;28;20295;-78
2023/07/08 07:04:05;;;;;;;5.87;5.00;;;25.10;62.10;;;;;;10513692;28;20220;-79
2023/07/08 07:09:07;;;;;;;6.13;5.40;;;25.40;60.70;;;;;;10539003;28;20656;-79
2023/07/08 07:14:11;;;;;;;7.30;5.70;;;25.50;59.80;;;;;;10534852;28;20221;-78
2023/07/08 07:19:13;;;;;;;5.23;4.70;;;25.50;61.40;;;;;;10511127;28;20200;-78
2023/07/08 07:24:15;;;;;;;5.40;4.90;;;25.50;62.10;;;;;;10520816;28;20224;-77
2023/07/08 07:29:18;;;;;;;6.93;5.10;;;25.60;60.40;;;;;;10534302;28;20193;-79
2023/07/08 07:34:21;;;;;;;5.70;4.83;;;25.60;63.00;;;;;;10543637;28;20808;-78
2023/07/08 07:39:23;;;;;;;6.67;5.00;;;25.60;62.70;;;;;;10523819;28;20200;-77
2023/07/08 07:44:26;;;;;;;5.00;4.37;;;25.80;63.10;;;;;;10546246;28;20267;-78
2023/07/08 07:49:28;;;;;;;5.17;3.83;;;25.80;63.10;;;;;;10535818;28;20193;-78
2023/07/08 07:54:30;;;;;;;9.27;4.50;;;26.00;61.00;;;;;;10539985;28;20252;-77
2023/07/08 07:59:34;;;;;;;4.73;4.33;;;26.10;61.40;;;;;;10510248;28;20224;-77
2023/07/08 08:04:36;;;;;;;5.17;4.67;;;26.60;62.50;;;;;;10544598;28;20208;-79
2023/07/08 08:09:39;;;;;;;5.93;4.47;;;27.20;61.20;;;;;;10521119;28;20197;-78
2023/07/08 08:14:43;;;;;;;6.80;4.43;;;27.90;59.60;;;;;;10523250;28;20217;-78
2023/07/08 08:19:45;;;;;;;4.67;4.20;;;28.50;57.90;;;;;;10525430;28;20200;-78
2023/07/08 08:24:47;;;;;;;3.87;3.47;;;29.20;55.50;;;;;;10538753;28;20241;-78
2023/07/08 08:29:50;;;;;;;7.70;3.90;;;29.30;56.40;;;;;;10520631;28;20197;-79
2023/07/08 08:34:52;;;;;;;3.70;3.37;;;29.30;55.70;;;;;;10544087;28;20212;-79
2023/07/08 08:39:54;;;;;;;3.50;3.13;;;29.50;56.50;;;;;;10541138;28;20192;-79
2023/07/08 08:45:00;;;;;;;4.10;3.70;;;29.90;55.40;;;;;;10541518;28;20216;-80
2023/07/08 08:50:09;;;;;;;38.53;8.17;;;30.50;53.40;;;;;;10520157;28;20212;-79
2023/07/08 08:55:13;;;;;;;3.47;3.17;;;30.80;52.90;;;;;;10524652;28;20240;-79
2023/07/08 09:00:27;;;;;;;5.17;3.40;;;30.60;53.10;;;;;;10541621;28;20189;-78
2023/07/08 09:05:29;;;;;;;3.73;3.30;;;30.50;54.80;;;;;;10539633;28;20265;-78
2023/07/08 09:10:41;;;;;;;4.10;3.17;;;30.90;53.60;;;;;;10523455;28;20224;-78
2023/07/08 09:15:44;;;;;;;3.13;2.83;;;31.60;52.10;;;;;;10539595;28;20637;-79
2023/07/08 09:20:47;;;;;;;4.43;2.90;;;32.20;51.20;;;;;;10538877;28;20200;-79
2023/07/08 09:25:54;;;;;;;3.60;3.00;;;32.50;51.60;;;;;;10524023;28;20255;-78
2023/07/08 09:30:57;;;;;;;4.17;3.10;;;32.50;51.60;;;;;;10514764;28;20239;-79
2023/07/08 09:36:00;;;;;;;2.50;2.30;;;32.90;50.60;;;;;;10516688;28;20224;-78
2023/07/08 09:41:02;;;;;;;3.70;3.00;;;33.50;50.00;;;;;;10514887;28;20203;-79
2023/07/08 09:46:10;;;;;;;5.87;3.07;;;34.10;48.70;;;;;;10512925;28;20216;-79
2023/07/08 09:51:12;;;;;;;3.45;3.15;;;34.70;48.00;;;;;;10517616;28;20257;-80
2023/07/08 09:56:15;;;;;;;3.20;3.00;;;35.70;48.20;;;;;;10520976;28;20709;-79
2023/07/08 10:01:24;;;;;;;4.45;3.28;;;36.60;45.80;;;;;;10522638;28;20201;-80
2023/07/08 10:06:28;;;;;;;3.40;2.90;;;37.90;45.50;;;;;;10517081;28;20216;-79
2023/07/08 10:11:33;;;;;;;4.18;2.88;;;39.40;43.20;;;;;;10516192;28;20565;-80
2023/07/08 10:16:37;;;;;;;4.50;3.65;;;39.70;42.70;;;;;;10510219;28;20274;-78
2023/07/08 10:21:45;;;;;;;4.22;3.88;;;38.60;42.30;;;;;;10515277;28;20258;-78
2023/07/08 10:26:54;;;;;;;3.53;3.23;;;36.90;43.30;;;;;;10531045;28;20223;-79
2023/07/08 10:32:07;;;;;;;4.17;3.80;;;35.40;45.30;;;;;;10511155;28;20244;-78
2023/07/08 10:37:20;;;;;;;4.20;3.90;;;34.30;46.70;;;;;;10524492;28;20311;-78
2023/07/08 10:42:35;;;;;;;6.67;3.90;;;33.60;47.90;;;;;;10486605;28;20221;-78
2023/07/08 10:47:55;;;;;;;4.20;3.80;;;32.80;49.10;;;;;;10514425;28;20242;-78
2023/07/08 10:53:05;;;;;;;3.17;2.87;;;32.20;49.30;;;;;;10535963;28;20266;-78
2023/07/08 10:58:41;;;;;;;3.20;2.90;;;31.50;49.70;;;;;;10538501;28;20200;-79
2023/07/08 11:04:06;;;;;;;5.33;3.03;;;30.90;51.30;;;;;;10534326;28;20213;-79
2023/07/08 11:09:11;;;;;;;4.30;3.10;;;30.40;52.20;;;;;;10535311;28;20280;-77
2023/07/08 11:14:19;;;;;;;3.37;2.97;;;30.00;52.00;;;;;;10543974;28;20240;-79
2023/07/08 11:19:27;;;;;;;3.13;2.87;;;29.70;52.20;;;;;;10513904;28;20227;-78
2023/07/08 11:24:35;;;;;;;3.63;3.27;;;29.50;53.40;;;;;;10543357;22;20695;-84
2023/07/08 11:29:42;;;;;;;5.47;4.00;;;29.50;54.00;;;;;;10528616;28;20238;-84
2023/07/08 11:34:49;;;;;;;3.00;2.63;;;29.60;54.50;;;;;;10500091;28;20222;-84
2023/07/08 11:39:58;;;;;;;3.47;3.17;;;29.80;52.30;;;;;;10525054;28;20295;-84
2023/07/08 11:45:01;;;;;;;3.20;3.00;;;29.80;52.70;;;;;;10515612;28;20235;-84
2023/07/08 11:50:21;;;;;;;3.27;2.97;;;29.80;51.70;;;;;;10532988;28;20204;-81
2023/07/08 11:55:31;;;;;;;3.33;2.80;;;29.70;52.40;;;;;;10526186;28;20279;-82
2023/07/08 12:00:34;;;;;;;3.77;3.00;;;29.50;52.90;;;;;;10528484;28;20193;-84
2023/07/08 12:05:38;;;;;;;3.20;2.93;;;29.30;53.80;;;;;;10529912;28;20324;-83
2023/07/08 12:10:46;;;;;;;4.47;3.43;;;29.20;53.70;;;;;;10525357;28;20232;-80
2023/07/08 12:15:48;;;;;;;4.23;3.50;;;29.00;54.20;;;;;;10519271;28;20221;-81
2023/07/08 12:20:54;;;;;;;3.70;3.40;;;28.90;54.70;;;;;;10525467;28;20264;-82
2023/07/08 12:25:58;;;;;;;3.37;3.07;;;28.90;54.40;;;;;;10512075;28;20237;-82
2023/07/08 12:31:00;;;;;;;2.90;2.70;;;28.90;56.40;;;;;;10526137;28;20212;-82
2023/07/08 12:36:05;;;;;;;3.00;2.73;;;28.70;55.30;;;;;;10499852;28;20219;-82
2023/07/08 12:41:11;;;;;;;2.90;2.53;;;28.70;55.10;;;;;;10531653;28;20257;-82
2023/07/08 12:46:15;;;;;;;3.83;3.37;;;28.70;54.20;;;;;;10507832;28;20228;-81
2023/07/08 12:51:21;;;;;;;3.50;3.20;;;28.70;55.10;;;;;;10529264;28;20223;-82
2023/07/08 12:56:25;;;;;;;6.20;2.97;;;28.70;55.40;;;;;;10506026;28;20204;-82
2023/07/08 13:01:31;;;;;;;3.40;3.10;;;28.70;54.90;;;;;;10529831;28;20200;-82
2023/07/08 13:06:36;;;;;;;3.00;2.70;;;28.70;54.30;;;;;;10521512;28;20287;-82
2023/07/08 13:11:38;;;;;;;5.87;3.03;;;28.70;55.20;;;;;;10515865;28;20205;-80
2023/07/08 13:16:41;;;;;;;3.50;3.20;;;28.70;53.40;;;;;;10523016;28;20221;-82
2023/07/08 13:21:45;;;;;;;4.83;3.07;;;28.80;54.00;;;;;;10524418;28;20228;-81
2023/07/08 13:26:49;;;;;;;3.17;2.87;;;28.90;54.60;;;;;;10502587;28;20274;-82
2023/07/08 13:31:57;;;;;;;6.60;2.50;;;28.90;55.20;;;;;;10515797;28;20270;-82
2023/07/08 13:37:01;;;;;;;3.43;2.83;;;28.90;54.10;;;;;;10527075;28;20228;-82
2023/07/08 13:42:04;;;;;;;3.53;2.87;;;29.00;52.70;;;;;;10532173;28;20270;-80
2023/07/08 13:47:21;;;;;;;3.00;2.70;;;29.00;52.40;;;;;;10504185;28;20228;-82
2023/07/08 13:52:24;;;;;;;3.23;2.57;;;29.00;53.20;;;;;;10536132;28;20211;-81
2023/07/08 13:57:32;;;;;;;3.30;2.90;;;28.90;54.00;;;;;;10540985;28;20221;-82
2023/07/08 14:02:36;;;;;;;2.63;2.17;;;28.90;52.60;;;;;;10528969;28;20201;-81
2023/07/08 14:07:39;;;;;;;8.03;2.63;;;28.80;53.80;;;;;;10522955;28;20213;-82
2023/07/08 14:12:42;;;;;;;2.77;2.57;;;28.90;52.90;;;;;;10529603;28;20204;-80
2023/07/08 14:17:44;;;;;;;5.27;3.10;;;28.90;51.10;;;;;;10528232;28;20275;-82
2023/07/08 14:22:47;;;;;;;3.97;3.60;;;29.00;52.40;;;;;;10508970;28;20269;-81
2023/07/08 14:27:50;;;;;;;3.40;3.10;;;29.20;53.00;;;;;;10521275;28;20217;-82
2023/07/08 14:32:52;;;;;;;3.07;2.87;;;29.30;53.40;;;;;;10537475;28;20197;-80
2023/07/08 14:37:55;;;;;;;2.90;2.70;;;29.40;52.40;;;;;;10498351;28;20324;-82
2023/07/08 14:43:00;;;;;;;3.40;3.10;;;29.50;52.00;;;;;;10519178;28;20238;-81
2023/07/08 14:48:02;;;;;;;3.00;2.80;;;29.50;52.70;;;;;;10524905;28;20226;-82
2023/07/08 14:53:06;;;;;;;3.13;2.80;;;29.70;52.30;;;;;;10524725;28;20707;-82
2023/07/08 14:58:11;;;;;;;3.53;3.23;;;29.70;52.70;;;;;;10525609;28;20732;-79
2023/07/08 15:03:13;;;;;;;2.50;2.17;;;29.90;53.20;;;;;;10526241;28;20197;-82
2023/07/08 15:08:16;;;;;;;2.73;2.60;;;29.80;52.10;;;;;;10530126;28;20232;-82
2023/07/08 15:13:21;;;;;;;5.47;2.90;;;29.80;53.10;;;;;;10529402;28;20532;-82
2023/07/08 15:18:23;;;;;;;3.03;2.50;;;29.80;51.10;;;;;;10511069;28;20209;-82
2023/07/08 15:23:27;;;;;;;3.10;2.80;;;29.90;53.60;;;;;;10531469;28;20204;-81
2023/07/08 15:28:41;;;;;;;3.00;2.80;;;29.80;53.10;;;;;;10526375;28;20233;-83
2023/07/08 15:33:44;;;;;;;3.60;2.70;;;29.90;52.80;;;;;;10509761;28;20190;-82
2023/07/08 15:38:47;;;;;;;2.73;2.53;;;29.80;52.10;;;;;;10519388;28;20235;-82
2023/07/08 15:43:50;;;;;;;2.93;2.73;;;29.70;54.50;;;;;;10510642;28;20205;-80
2023/07/08 15:48:52;;;;;;;2.60;2.40;;;29.70;52.60;;;;;;10538869;28;20223;-82
2023/07/08 15:53:55;;;;;;;2.50;2.30;;;29.70;52.40;;;;;;10517629;28;20645;-82
2023/07/08 15:58:58;;;;;;;3.13;2.83;;;29.50;52.90;;;;;;10526390;28;20189;-82
2023/07/08 16:04:00;;;;;;;2.60;2.40;;;29.40;53.30;;;;;;10539256;28;20679;-81
2023/07/08 16:09:03;;;;;;;5.17;2.97;;;29.50;53.40;;;;;;10529451;28;20228;-82
2023/07/08 16:14:06;;;;;;;2.73;2.53;;;29.50;52.60;;;;;;10529403;28;20275;-82
2023/07/08 16:19:10;;;;;;;2.70;2.50;;;29.50;53.70;;;;;;10528066;28;20200;-80
2023/07/08 16:24:14;;;;;;;5.30;3.97;;;29.50;52.70;;;;;;10535702;28;20219;-81
2023/07/08 16:29:17;;;;;;;2.80;2.50;;;29.50;51.50;;;;;;10536836;28;20675;-80
2023/07/08 16:34:19;;;;;;;4.10;2.47;;;29.50;53.80;;;;;;10529600;28;20227;-82
2023/07/08 16:39:23;;;;;;;3.20;2.90;;;29.40;53.70;;;;;;10519599;28;20201;-82
2023/07/08 16:44:25;;;;;;;3.00;2.80;;;29.40;52.60;;;;;;10519590;28;20315;-83
2023/07/08 16:49:27;;;;;;;2.90;2.70;;;29.50;52.80;;;;;;10518544;28;20209;-79
2023/07/08 16:54:30;;;;;;;3.07;2.80;;;29.60;52.50;;;;;;10523164;28;20220;-81
2023/07/08 16:59:32;;;;;;;2.97;2.77;;;29.50;51.50;;;;;;10520818;28;20219;-82
2023/07/08 17:04:35;;;;;;;2.63;2.30;;;29.60;52.20;;;;;;10524087;28;20249;-82
2023/07/08 17:09:39;;;;;;;3.00;2.70;;;29.50;52.50;;;;;;10520293;28;20630;-80
2023/07/08 17:14:42;;;;;;;2.77;2.57;;;29.60;51.60;;;;;;10524468;28;20268;-82
2023/07/08 17:19:44;;;;;;;5.17;3.20;;;29.60;51.10;;;;;;10512419;28;20197;-82
2023/07/08 17:24:47;;;;;;;3.17;2.97;;;29.60;52.70;;;;;;10513667;28;20233;-79
2023/07/08 17:29:49;;;;;;;2.77;2.53;;;29.50;52.30;;;;;;10507229;28;20229;-82
2023/07/08 17:34:52;;;;;;;2.50;2.30;;;29.50;51.70;;;;;;10528588;28;20424;-82
2023/07/08 17:39:55;;;;;;;2.87;2.67;;;29.50;52.90;;;;;;10509590;28;20269;-83
2023/07/08 17:44:57;;;;;;;4.60;3.10;;;29.40;54.10;;;;;;10525937;28;20792;-81
2023/07/08 17:49:59;;;;;;;3.37;2.43;;;29.30;54.40;;;;;;10527615;28;20223;-82
2023/07/08 17:55:03;;;;;;;3.10;2.67;;;29.20;54.40;;;;;;10513097;28;20242;-82
2023/07/08 18:00:12;;;;;;;3.33;2.83;;;29.10;52.90;;;;;;10522467;28;20200;-79
2023/07/08 18:05:17;;;;;;;4.27;3.87;;;29.20;53.00;;;;;;10527832;28;20319;-82
2023/07/08 18:10:25;;;;;;;2.90;2.70;;;29.30;52.80;;;;;;10518389;28;20274;-82
2023/07/08 18:15:29;;;;;;;3.07;2.87;;;29.20;52.90;;;;;;10526693;28;20257;-82
2023/07/08 18:20:34;;;;;;;3.13;2.80;;;29.40;52.70;;;;;;10518355;28;20227;-82
2023/07/08 18:25:37;;;;;;;3.30;3.00;;;29.30;52.90;;;;;;10522696;28;20323;-82
2023/07/08 18:30:39;;;;;;;3.00;2.47;;;29.20;53.80;;;;;;10510416;28;20669;-82
2023/07/08 18:35:42;;;;;;;3.17;2.90;;;29.00;54.20;;;;;;10527927;28;20220;-82
2023/07/08 18:40:46;;;;;;;5.90;4.07;;;28.90;55.30;;;;;;10522130;28;20216;-83
2023/07/08 18:45:49;;;;;;;3.27;2.67;;;28.70;57.20;;;;;;10502668;28;20714;-80
2023/07/08 18:50:55;;;;;;;3.40;3.10;;;28.40;59.60;;;;;;10524378;28;20226;-82
2023/07/08 18:55:59;;;;;;;3.30;3.00;;;28.20;59.30;;;;;;10527313;28;20258;-82
2023/07/08 19:01:01;;;;;;;3.97;2.80;;;28.10;58.40;;;;;;10523300;28;20197;-82
2023/07/08 19:06:03;;;;;;;3.10;2.70;;;28.00;57.90;;;;;;10536666;28;20220;-79
2023/07/08 19:11:17;;;;;;;4.30;2.90;;;27.90;58.40;;;;;;10527339;28;20258;-82
2023/07/08 19:16:21;;;;;;;3.23;3.03;;;27.80;59.40;;;;;;10503888;28;20295;-81
2023/07/08 19:21:26;;;;;;;2.90;2.70;;;27.70;58.80;;;;;;10514399;28;20209;-82
2023/07/08 19:26:29;;;;;;;3.67;2.93;;;27.60;58.40;;;;;;10511060;28;20765;-81
2023/07/08 19:31:34;;;;;;;4.90;3.80;;;27.60;59.70;;;;;;10531428;28;20192;-82
2023/07/08 19:36:36;;;;;;;3.33;3.07;;;27.50;59.30;;;;;;10523352;28;20213;-80
2023/07/08 19:41:40;;;;;;;47.23;7.27;;;27.40;59.90;;;;;;10533761;28;20193;-81
2023/07/08 19:46:42;;;;;;;30.30;7.80;;;27.30;59.60;;;;;;10526407;28;20224;-84
2023/07/08 19:51:44;;;;;;;4.57;2.83;;;27.20;61.30;;;;;;10525647;28;20224;-79
2023/07/08 19:56:47;;;;;;;5.40;3.23;;;27.20;60.70;;;;;;10522444;28;20664;-76
2023/07/08 20:01:49;;;;;;;3.03;2.83;;;27.10;61.10;;;;;;10510295;28;20327;-79
2023/07/08 20:06:51;;;;;;;2.90;2.70;;;27.00;61.10;;;;;;10512183;28;20248;-79
2023/07/08 20:11:55;;;;;;;4.03;3.33;;;26.90;60.60;;;;;;10510513;28;20549;-79
2023/07/08 20:16:57;;;;;;;3.80;3.47;;;26.90;60.90;;;;;;10520177;28;20346;-77
2023/07/08 20:21:59;;;;;;;5.87;3.67;;;26.80;61.90;;;;;;10520527;28;20212;-79
2023/07/08 20:27:03;;;;;;;4.40;2.93;;;26.70;62.90;;;;;;10516031;28;20259;-79
2023/07/08 20:32:07;;;;;;;3.37;2.83;;;26.60;62.10;;;;;;10517726;28;20224;-79
2023/07/08 20:37:12;;;;;;;4.10;3.70;;;26.60;61.60;;;;;;10520822;28;20220;-79
2023/07/08 20:42:15;;;;;;;4.80;3.73;;;26.50;61.60;;;;;;10504908;28;20204;-77
2023/07/08 20:47:18;;;;;;;5.80;3.50;;;26.40;64.40;;;;;;10518203;28;20647;-79
2023/07/08 20:52:20;;;;;;;5.80;3.03;;;26.40;65.60;;;;;;10507927;28;20204;-79
2023/07/08 20:57:23;;;;;;;4.13;2.80;;;26.20;64.10;;;;;;10500406;28;20205;-79
2023/07/08 21:02:27;;;;;;;4.20;3.17;;;26.20;64.70;;;;;;10505656;28;20190;-79
2023/07/08 21:07:29;;;;;;;3.40;2.83;;;26.20;64.00;;;;;;10518321;28;20224;-79
2023/07/08 21:12:33;;;;;;;3.10;2.77;;;26.10;64.50;;;;;;10506276;28;20284;-79
2023/07/08 21:17:37;;;;;;;4.60;4.10;;;26.00;64.40;;;;;;10518280;28;20217;-77
2023/07/08 21:22:39;;;;;;;2.80;2.60;;;26.00;64.60;;;;;;10521188;28;20261;-80
2023/07/08 21:27:43;;;;;;;3.50;3.20;;;25.90;65.00;;;;;;10516655;28;20324;-79
2023/07/08 21:32:47;;;;;;;5.03;3.50;;;25.80;65.20;;;;;;10521362;28;20254;-79
2023/07/08 21:37:51;;;;;;;4.47;3.80;;;25.80;65.90;;;;;;10513029;28;20212;-79
2023/07/08 21:42:55;;;;;;;3.80;3.50;;;25.70;66.60;;;;;;10490193;28;20209;-77
2023/07/08 21:47:57;;;;;;;3.33;3.03;;;25.60;66.50;;;;;;10520706;28;20221;-79
2023/07/08 21:53:02;;;;;;;3.67;3.37;;;25.60;66.30;;;;;;10515772;28;20229;-79
2023/07/08 21:58:06;;;;;;;4.00;3.70;;;25.50;66.70;;;;;;10516169;28;20247;-79
2023/07/08 22:03:13;;;;;;;3.90;3.23;;;25.50;66.90;;;;;;10503842;28;20200;-79
2023/07/08 22:08:16;;;;;;;3.47;3.17;;;25.40;67.20;;;;;;10519954;28;20212;-79
2023/07/08 22:13:26;;;;;;;3.57;3.27;;;25.40;67.30;;;;;;10518556;28;20284;-78
2023/07/08 22:18:29;;;;;;;3.80;3.50;;;25.30;67.60;;;;;;10521790;28;20318;-78
2023/07/08 22:23:31;;;;;;;5.70;3.33;;;25.30;67.60;;;;;;10496282;28;20209;-77
2023/07/08 22:28:35;;;;;;;3.70;3.43;;;25.30;67.60;;;;;;10521129;28;20231;-78
2023/07/08 22:33:37;;;;;;;3.77;3.47;;;25.30;67.70;;;;;;10514562;28;20201;-79
2023/07/08 22:38:39;;;;;;;3.90;3.60;;;25.30;67.80;;;;;;10522821;28;20224;-79
2023/07/08 22:43:42;;;;;;;5.13;3.23;;;25.20;68.00;;;;;;10507778;28;20203;-79
2023/07/08 22:48:44;;;;;;;5.97;3.50;;;25.20;68.80;;;;;;10526341;28;20226;-76
2023/07/08 22:53:46;;;;;;;3.97;3.60;;;25.20;69.20;;;;;;10525289;28;20217;-79
2023/07/08 22:58:50;;;;;;;7.17;3.43;;;25.10;69.10;;;;;;10526051;28;20250;-78
2023/07/08 23:03:52;;;;;;;3.10;2.90;;;25.10;69.60;;;;;;10526034;28;20200;-79
2023/07/08 23:08:54;;;;;;;4.00;3.60;;;25.00;69.90;;;;;;10507878;28;20653;-76
2023/07/08 23:13:57;;;;;;;4.10;3.70;;;24.90;70.10;;;;;;10522795;28;20217;-78
2023/07/08 23:19:01;;;;;;;7.77;3.80;;;24.80;70.50;;;;;;10506567;28;20567;-79
2023/07/08 23:24:24;;;;;;;4.27;3.87;;;24.80;70.80;;;;;;10516818;28;20235;-76
2023/07/08 23:29:27;;;;;;;4.20;3.40;;;24.70;70.80;;;;;;10514408;28;20212;-80
2023/07/08 23:34:30;;;;;;;4.03;3.50;;;24.70;70.70;;;;;;10525658;28;20220;-80
2023/07/08 23:39:32;;;;;;;3.07;2.80;;;24.70;70.90;;;;;;10523692;28;20196;-77
2023/07/08 23:44:35;;;;;;;3.80;3.40;;;24.60;71.10;;;;;;10517737;28;20227;-76
2023/07/08 23:49:39;;;;;;;6.00;4.43;;;24.50;71.60;;;;;;10511095;28;20225;-78
2023/07/08 23:54:41;;;;;;;7.57;3.77;;;24.50;71.90;;;;;;10516429;28;20741;-78
2023/07/08 23:59:48;;;;;;;3.90;3.50;;;24.50;71.80;;;;;;10519610;28;20288;-76
